sensor_id;sensor_type;location;lat;lon;timestamp;P1;durP1;ratioP1;P2;durP2;ratioP2
52438;SDS011;38359;53.150;6.504;2023-06-24T00:03:46;10.85;;;8.80;;
52438;SDS011;38359;53.150;6.504;2023-06-24T00:14:13;12.95;;;8.73;;
52438;SDS011;38359;53.150;6.504;2023-06-24T00:24:40;11.52;;;9.10;;
52438;SDS011;38359;53.150;6.504;2023-06-24T00:35:07;16.98;;;10.70;;
52438;SDS011;38359;53.150;6.504;2023-06-24T00:45:37;20.70;;;11.25;;
52438;SDS011;38359;53.150;6.504;2023-06-24T00:56:04;19.83;;;11.85;;
52438;SDS011;38359;53.150;6.504;2023-06-24T01:06:30;19.00;;;12.48;;
52438;SDS011;38359;53.150;6.504;2023-06-24T01:17:03;17.85;;;11.95;;
52438;SDS011;38359;53.150;6.504;2023-06-24T01:38:58;21.88;;;14.07;;
52438;SDS011;38359;53.150;6.504;2023-06-24T01:49:29;22.27;;;13.98;;
52438;SDS011;38359;53.150;6.504;2023-06-24T01:59:58;24.42;;;14.52;;
52438;SDS011;38359;53.150;6.504;2023-06-24T02:10:25;22.75;;;13.07;;
52438;SDS011;38359;53.150;6.504;2023-06-24T02:20:53;19.48;;;13.65;;
52438;SDS011;38359;53.150;6.504;2023-06-24T02:31:21;23.77;;;15.00;;
52438;SDS011;38359;53.150;6.504;2023-06-24T02:41:47;20.17;;;13.45;;
52438;SDS011;38359;53.150;6.504;2023-06-24T02:52:15;18.50;;;14.57;;
52438;SDS011;38359;53.150;6.504;2023-06-24T03:02:41;21.73;;;14.32;;
52438;SDS011;38359;53.150;6.504;2023-06-24T03:13:09;22.23;;;13.82;;
52438;SDS011;38359;53.150;6.504;2023-06-24T03:23:34;20.17;;;14.32;;
52438;SDS011;38359;53.150;6.504;2023-06-24T03:34:01;21.98;;;12.75;;
52438;SDS011;38359;53.150;6.504;2023-06-24T03:44:26;18.77;;;12.65;;
52438;SDS011;38359;53.150;6.504;2023-06-24T03:54:52;18.13;;;13.93;;
52438;SDS011;38359;53.150;6.504;2023-06-24T04:05:19;23.65;;;12.95;;
52438;SDS011;38359;53.150;6.504;2023-06-24T04:15:46;17.50;;;12.63;;
52438;SDS011;38359;53.150;6.504;2023-06-24T04:26:12;15.70;;;12.00;;
52438;SDS011;38359;53.150;6.504;2023-06-24T04:36:37;23.23;;;12.65;;
52438;SDS011;38359;53.150;6.504;2023-06-24T04:47:04;19.42;;;11.52;;
52438;SDS011;38359;53.150;6.504;2023-06-24T04:57:30;18.90;;;11.00;;
52438;SDS011;38359;53.150;6.504;2023-06-24T05:07:57;19.17;;;12.70;;
52438;SDS011;38359;53.150;6.504;2023-06-24T05:18:22;22.60;;;13.30;;
52438;SDS011;38359;53.150;6.504;2023-06-24T05:28:48;23.70;;;12.45;;
52438;SDS011;38359;53.150;6.504;2023-06-24T05:39:14;17.13;;;12.20;;
52438;SDS011;38359;53.150;6.504;2023-06-24T05:49:40;18.77;;;13.77;;
52438;SDS011;38359;53.150;6.504;2023-06-24T06:00:06;19.85;;;12.60;;
52438;SDS011;38359;53.150;6.504;2023-06-24T06:10:32;21.67;;;12.85;;
52438;SDS011;38359;53.150;6.504;2023-06-24T06:20:58;18.92;;;12.07;;
52438;SDS011;38359;53.150;6.504;2023-06-24T06:31:24;18.13;;;11.23;;
52438;SDS011;38359;53.150;6.504;2023-06-24T06:41:51;17.95;;;11.25;;
52438;SDS011;38359;53.150;6.504;2023-06-24T06:52:16;16.27;;;11.07;;
52438;SDS011;38359;53.150;6.504;2023-06-24T07:02:42;14.82;;;10.13;;
52438;SDS011;38359;53.150;6.504;2023-06-24T07:13:08;25.23;;;10.55;;
52438;SDS011;38359;53.150;6.504;2023-06-24T07:23:34;14.55;;;8.70;;
52438;SDS011;38359;53.150;6.504;2023-06-24T07:34:00;10.18;;;7.85;;
52438;SDS011;38359;53.150;6.504;2023-06-24T07:44:26;12.75;;;8.05;;
52438;SDS011;38359;53.150;6.504;2023-06-24T07:54:52;13.60;;;7.40;;
52438;SDS011;38359;53.150;6.504;2023-06-24T08:05:18;10.13;;;6.57;;
52438;SDS011;38359;53.150;6.504;2023-06-24T08:15:45;14.98;;;7.45;;
52438;SDS011;38359;53.150;6.504;2023-06-24T08:26:11;11.20;;;6.15;;
52438;SDS011;38359;53.150;6.504;2023-06-24T08:36:37;11.73;;;7.03;;
52438;SDS011;38359;53.150;6.504;2023-06-24T08:47:03;11.93;;;5.65;;
52438;SDS011;38359;53.150;6.504;2023-06-24T08:57:29;9.25;;;5.60;;
52438;SDS011;38359;53.150;6.504;2023-06-24T09:07:55;9.77;;;5.70;;
52438;SDS011;38359;53.150;6.504;2023-06-24T09:18:21;10.63;;;6.40;;
52438;SDS011;38359;53.150;6.504;2023-06-24T09:28:57;14.43;;;7.32;;
52438;SDS011;38359;53.150;6.504;2023-06-24T09:39:23;17.17;;;7.18;;
52438;SDS011;38359;53.150;6.504;2023-06-24T09:49:54;12.02;;;6.10;;
52438;SDS011;38359;53.150;6.504;2023-06-24T10:00:20;10.38;;;5.57;;
52438;SDS011;38359;53.150;6.504;2023-06-24T10:10:47;14.82;;;4.07;;
52438;SDS011;38359;53.150;6.504;2023-06-24T10:21:13;4.25;;;3.70;;
52438;SDS011;38359;53.150;6.504;2023-06-24T10:52:58;11.18;;;4.97;;
52438;SDS011;38359;53.150;6.504;2023-06-24T11:03:25;6.35;;;4.07;;
52438;SDS011;38359;53.150;6.504;2023-06-24T11:13:51;7.20;;;3.92;;
52438;SDS011;38359;53.150;6.504;2023-06-24T11:24:17;15.82;;;4.85;;
52438;SDS011;38359;53.150;6.504;2023-06-24T11:34:42;9.70;;;5.10;;
52438;SDS011;38359;53.150;6.504;2023-06-24T11:45:09;13.65;;;4.65;;
52438;SDS011;38359;53.150;6.504;2023-06-24T11:55:37;6.50;;;3.90;;
52438;SDS011;38359;53.150;6.504;2023-06-24T12:06:03;8.65;;;4.00;;
52438;SDS011;38359;53.150;6.504;2023-06-24T12:16:29;4.10;;;3.17;;
52438;SDS011;38359;53.150;6.504;2023-06-24T12:26:55;4.78;;;3.40;;
52438;SDS011;38359;53.150;6.504;2023-06-24T12:37:21;5.97;;;3.63;;
52438;SDS011;38359;53.150;6.504;2023-06-24T12:47:47;6.32;;;3.40;;
52438;SDS011;38359;53.150;6.504;2023-06-24T12:58:18;7.68;;;4.05;;
52438;SDS011;38359;53.150;6.504;2023-06-24T13:08:48;7.97;;;3.90;;
52438;SDS011;38359;53.150;6.504;2023-06-24T13:19:14;18.70;;;3.92;;
52438;SDS011;38359;53.150;6.504;2023-06-24T13:29:40;8.57;;;4.53;;
52438;SDS011;38359;53.150;6.504;2023-06-24T13:40:06;8.90;;;3.58;;
52438;SDS011;38359;53.150;6.504;2023-06-24T13:50:33;6.82;;;3.47;;
52438;SDS011;38359;53.150;6.504;2023-06-24T14:00:59;5.22;;;2.80;;
52438;SDS011;38359;53.150;6.504;2023-06-24T14:11:25;3.78;;;2.53;;
52438;SDS011;38359;53.150;6.504;2023-06-24T14:21:51;6.10;;;3.08;;
52438;SDS011;38359;53.150;6.504;2023-06-24T14:32:17;6.50;;;2.70;;
52438;SDS011;38359;53.150;6.504;2023-06-24T14:42:42;3.55;;;2.45;;
52438;SDS011;38359;53.150;6.504;2023-06-24T14:53:08;3.53;;;2.03;;
52438;SDS011;38359;53.150;6.504;2023-06-24T15:03:34;4.97;;;2.17;;
52438;SDS011;38359;53.150;6.504;2023-06-24T15:14:00;8.45;;;2.83;;
52438;SDS011;38359;53.150;6.504;2023-06-24T15:24:26;9.52;;;3.78;;
52438;SDS011;38359;53.150;6.504;2023-06-24T15:34:51;14.33;;;3.60;;
52438;SDS011;38359;53.150;6.504;2023-06-24T15:45:17;7.15;;;3.75;;
52438;SDS011;38359;53.150;6.504;2023-06-24T15:55:43;6.35;;;3.33;;
52438;SDS011;38359;53.150;6.504;2023-06-24T16:06:09;9.18;;;3.50;;
52438;SDS011;38359;53.150;6.504;2023-06-24T16:16:35;7.28;;;3.47;;
52438;SDS011;38359;53.150;6.504;2023-06-24T16:27:00;9.02;;;3.78;;
52438;SDS011;38359;53.150;6.504;2023-06-24T16:37:27;7.70;;;3.83;;
52438;SDS011;38359;53.150;6.504;2023-06-24T16:47:53;10.20;;;3.08;;
52438;SDS011;38359;53.150;6.504;2023-06-24T16:58:18;10.37;;;2.87;;
52438;SDS011;38359;53.150;6.504;2023-06-24T17:08:44;6.20;;;3.20;;
52438;SDS011;38359;53.150;6.504;2023-06-24T17:19:10;5.40;;;2.90;;
52438;SDS011;38359;53.150;6.504;2023-06-24T17:29:36;3.47;;;2.50;;
52438;SDS011;38359;53.150;6.504;2023-06-24T17:40:02;4.45;;;2.40;;
52438;SDS011;38359;53.150;6.504;2023-06-24T17:50:30;5.03;;;2.28;;
52438;SDS011;38359;53.150;6.504;2023-06-24T18:00:57;6.47;;;2.75;;
52438;SDS011;38359;53.150;6.504;2023-06-24T18:11:23;6.70;;;2.27;;
52438;SDS011;38359;53.150;6.504;2023-06-24T18:21:49;8.70;;;2.55;;
52438;SDS011;38359;53.150;6.504;2023-06-24T18:32:15;4.53;;;2.75;;
52438;SDS011;38359;53.150;6.504;2023-06-24T18:42:41;6.18;;;2.40;;
52438;SDS011;38359;53.150;6.504;2023-06-24T18:53:07;11.50;;;2.90;;
52438;SDS011;38359;53.150;6.504;2023-06-24T19:03:35;7.03;;;2.60;;
52438;SDS011;38359;53.150;6.504;2023-06-24T19:14:01;5.63;;;2.55;;
52438;SDS011;38359;53.150;6.504;2023-06-24T19:24:29;11.77;;;2.70;;
52438;SDS011;38359;53.150;6.504;2023-06-24T19:34:56;6.63;;;2.70;;
52438;SDS011;38359;53.150;6.504;2023-06-24T19:45:24;6.40;;;3.03;;
52438;SDS011;38359;53.150;6.504;2023-06-24T19:55:50;10.23;;;3.40;;
52438;SDS011;38359;53.150;6.504;2023-06-24T20:06:16;5.68;;;3.03;;
52438;SDS011;38359;53.150;6.504;2023-06-24T20:16:41;8.50;;;3.50;;
52438;SDS011;38359;53.150;6.504;2023-06-24T20:27:07;9.30;;;3.30;;
52438;SDS011;38359;53.150;6.504;2023-06-24T20:37:33;16.07;;;4.00;;
52438;SDS011;38359;53.150;6.504;2023-06-24T20:47:59;7.72;;;3.85;;
52438;SDS011;38359;53.150;6.504;2023-06-24T20:58:25;9.38;;;4.40;;
52438;SDS011;38359;53.150;6.504;2023-06-24T21:08:50;8.63;;;4.22;;
52438;SDS011;38359;53.150;6.504;2023-06-24T21:19:16;7.03;;;4.18;;
52438;SDS011;38359;53.150;6.504;2023-06-24T21:29:42;6.03;;;3.88;;
52438;SDS011;38359;53.150;6.504;2023-06-24T21:40:08;10.07;;;4.80;;
52438;SDS011;38359;53.150;6.504;2023-06-24T21:50:34;10.50;;;5.10;;
52438;SDS011;38359;53.150;6.504;2023-06-24T22:01:00;10.98;;;5.00;;
52438;SDS011;38359;53.150;6.504;2023-06-24T22:11:26;8.50;;;4.80;;
52438;SDS011;38359;53.150;6.504;2023-06-24T22:21:52;9.77;;;4.35;;
52438;SDS011;38359;53.150;6.504;2023-06-24T22:32:17;9.45;;;5.32;;
52438;SDS011;38359;53.150;6.504;2023-06-24T22:42:43;11.93;;;5.40;;
52438;SDS011;38359;53.150;6.504;2023-06-24T22:53:09;14.10;;;5.70;;
52438;SDS011;38359;53.150;6.504;2023-06-24T23:03:35;10.13;;;6.13;;
52438;SDS011;38359;53.150;6.504;2023-06-24T23:14:01;9.82;;;6.00;;
52438;SDS011;38359;53.150;6.504;2023-06-24T23:24:27;11.80;;;6.90;;
52438;SDS011;38359;53.150;6.504;2023-06-24T23:34:54;9.48;;;6.30;;
52438;SDS011;38359;53.150;6.504;2023-06-24T23:45:20;10.88;;;6.38;;
52438;SDS011;38359;53.150;6.504;2023-06-24T23:55:46;14.15;;;6.80;;
